Disclaimer

Please do not use the information listed here in-flight or in-navigation, as they are not provided to us by the airports but are provided by volunteers, so they might be outdated.

Search


Regions


Airport information page

No radio frequency information is available.

Airport informations:
Latitude: 47° 37' 47.00" N
Longitude: 065° 44' 20.00" W
Elevation: 193 feet - 59 meters
Operating hours: N/A
Operating agency: Municipal
Timezone: Second Sunday in March at 0200 to first Sunday in November at 0200 local time (Exception Arizona and that portion of Indiana in the Eastern Time Zone)
Fuel: Jet A1, without icing nhibitor.

100/130 MIL Spec, low lead, aviation gasoline (BLUE)

Runway information:
10/28 - 4500 x 100 feet< - >1372 x 30 meters

Recent METARs:
CZBF 181700Z AUTO 25013G19KT 9SM BKN031 M05/M12 A3024 RMK SLP247
CZBF 181823Z AUTO 26017KT 240V320 9SM BKN035 M05/M13 A3025 RMK SLP248
CZBF 181823Z AUTO 26017KT 240V320 9SM BKN035 M05/M13 A3025 RMK SLP248

Airport on the map: